Dallas, Texas
Traffic Map
Current Weather Conditions
Dallas, Texas
Overcast Thunderstorm
Overcast
73°
Feels Like: 73°
Wind Chill: 73° Ceiling: 2900
Heat Index: 73° Visibility: 4mi
Dew Point: 70° Wind: 8mph
Humidity: 90% Direction: 20° (NNE)
Pressure: 29.85in Gusts: 0mph
Raw Report DataKDAL 312153Z 02007KT 4SM TSRA BR SCT021 BKN029CB OVC080 23/21 A2985 RMK AO2 SLP102 FRQ LTGICCCCG TS SW-NW-NE OHD MOV NE P0005 T02280211 $
Traffic Incident Summary
Active as of:
Severity:
Category:
InformationThere was an issue retrieving the traffic information for this location. Please try a different location or try again shortly.
Advertisements
Track Severe Weather on mobile